Time;durP1;ratioP1;P1;durP2;ratioP2;P2;SDS_P1;SDS_P2;PMS_P1;PMS_P2;Temp;Humidity;BMP_temperature;BMP_pressure;BME280_temperature;BME280_humidity;BME280_pressure;Samples;Min_cycle;Max_cycle;Signal;HPM_P1;HPM_P2
2023/03/31 00:00:28;;;;;;;9.57;3.53;;;;;;;9.89;100.00;100321.84;5072924;28;20044;-51
2023/03/31 00:02:54;;;;;;;14.23;3.45;;;;;;;9.90;100.00;100320.03;5072404;28;20029;-51
2023/03/31 00:05:23;;;;;;;10.18;3.00;;;;;;;9.91;100.00;100303.13;5072230;28;20024;-51
2023/03/31 00:08:00;;;;;;;8.45;3.17;;;;;;;9.90;100.00;100297.00;5071181;28;20036;-51
2023/03/31 00:10:28;;;;;;;10.07;3.40;;;;;;;9.90;100.00;100290.84;5072706;28;20064;-51
2023/03/31 00:12:53;;;;;;;11.85;3.25;;;;;;;9.89;100.00;100286.50;5068022;28;20025;-52
2023/03/31 00:15:19;;;;;;;9.68;3.38;;;;;;;9.88;100.00;100283.03;5059291;28;20062;-51
2023/03/31 00:17:46;;;;;;;10.82;3.55;;;;;;;9.87;100.00;100272.53;5072093;28;20052;-52
2023/03/31 00:20:12;;;;;;;9.98;3.20;;;;;;;9.85;100.00;100262.06;5072459;28;20024;-51
2023/03/31 00:22:41;;;;;;;9.77;3.35;;;;;;;9.85;100.00;100259.41;5070588;28;20555;-52
2023/03/31 00:25:08;;;;;;;11.77;2.90;;;;;;;9.85;100.00;100255.91;5070585;28;20027;-51
2023/03/31 00:27:33;;;;;;;9.13;3.38;;;;;;;9.82;100.00;100249.91;5071854;28;20027;-51
2023/03/31 00:29:58;;;;;;;8.35;3.00;;;;;;;9.82;100.00;100249.91;5063887;28;20036;-52
2023/03/31 00:32:24;;;;;;;12.82;3.13;;;;;;;9.80;100.00;100243.84;5071786;28;20035;-51
2023/03/31 00:34:49;;;;;;;11.48;3.63;;;;;;;9.80;100.00;100238.56;5087391;28;20033;-50
2023/03/31 00:37:14;;;;;;;15.65;3.58;;;;;;;9.77;100.00;100227.38;5067392;28;20024;-51
2023/03/31 00:39:41;;;;;;;11.25;3.00;;;;;;;9.78;100.00;100227.25;5071608;28;20035;-50
2023/03/31 00:42:11;;;;;;;9.63;3.30;;;;;;;9.77;100.00;100212.28;5071793;28;20050;-51
2023/03/31 00:44:58;;;;;;;12.45;3.47;;;;;;;9.77;100.00;100214.09;5061808;28;20470;-51
2023/03/31 00:47:26;;;;;;;12.70;3.30;;;;;;;9.74;100.00;100217.00;5059065;28;20040;-52
2023/03/31 00:49:55;;;;;;;8.93;3.13;;;;;;;9.74;100.00;100215.22;5068733;28;20076;-53
2023/03/31 00:52:36;;;;;;;10.95;2.72;;;;;;;9.75;100.00;100213.41;5069553;28;20031;-51
2023/03/31 00:55:08;;;;;;;9.27;2.88;;;;;;;9.74;100.00;100206.41;5071447;28;20488;-53
2023/03/31 00:57:38;;;;;;;10.90;3.08;;;;;;;9.72;100.00;100200.38;5070411;28;20039;-52
2023/03/31 01:00:14;;;;;;;8.68;3.03;;;;;;;9.72;100.00;100197.75;5068631;28;20485;-50
2023/03/31 01:02:50;;;;;;;11.70;3.58;;;;;;;9.72;100.00;100195.91;5071609;28;20036;-50
2023/03/31 01:05:21;;;;;;;11.80;3.10;;;;;;;9.73;100.00;100197.63;5069594;28;20044;-51
2023/03/31 01:07:48;;;;;;;11.63;3.10;;;;;;;9.74;100.00;100193.16;5071305;28;20516;-51
2023/03/31 01:10:14;;;;;;;11.00;2.80;;;;;;;9.74;100.00;100187.84;5071176;28;20499;-51
2023/03/31 01:12:43;;;;;;;11.80;2.85;;;;;;;9.74;100.00;100182.53;5067261;28;20029;-51
2023/03/31 01:15:09;;;;;;;7.68;3.03;;;;;;;9.74;100.00;100178.09;5056377;28;20051;-50
2023/03/31 01:17:35;;;;;;;12.00;2.80;;;;;;;9.76;100.00;100176.16;5060315;28;20383;-51
2023/03/31 01:20:20;;;;;;;12.65;3.00;;;;;;;9.76;100.00;100170.00;5069961;28;20020;-52
2023/03/31 01:23:04;;;;;;;9.68;2.80;;;;;;;9.78;100.00;100165.41;5071605;28;20109;-51
2023/03/31 01:25:44;;;;;;;7.63;2.63;;;;;;;9.78;100.00;100160.94;5061648;28;20032;-51
2023/03/31 01:28:58;;;;;;;13.88;3.03;;;;;;;9.78;100.00;100158.28;5066639;28;20515;-52
2023/03/31 01:31:45;;;;;;;13.30;2.90;;;;;;;9.79;100.00;100144.06;5065505;28;20071;-50
2023/03/31 01:34:41;;;;;;;10.48;3.28;;;;;;;9.78;100.00;100145.03;5061193;28;20028;-51
2023/03/31 01:37:41;;;;;;;13.50;3.03;;;;;;;9.78;100.00;100146.84;5070836;28;20031;-51
2023/03/31 01:40:31;;;;;;;14.25;3.00;;;;;;;9.78;100.00;100134.41;5056108;28;20108;-51
2023/03/31 01:43:02;;;;;;;11.32;2.80;;;;;;;9.78;100.00;100121.16;5071213;28;20099;-51
2023/03/31 01:45:48;;;;;;;12.80;3.75;;;;;;;9.78;100.00;100122.97;5068385;28;20148;-50
2023/03/31 01:48:32;;;;;;;11.07;2.97;;;;;;;9.78;100.00;100115.84;5060901;28;20041;-51
2023/03/31 01:51:11;;;;;;;15.00;3.55;;;;;;;9.78;100.00;100107.06;5057065;28;20509;-51
2023/03/31 01:53:40;;;;;;;12.93;3.10;;;;;;;9.79;100.00;100095.47;5060882;28;20037;-51
2023/03/31 01:56:34;;;;;;;18.27;3.90;;;;;;;9.80;100.00;100086.56;5074528;28;20115;-53
2023/03/31 01:59:07;;;;;;;14.60;3.45;;;;;;;9.80;100.00;100073.28;5064536;28;20028;-51
2023/03/31 02:01:46;;;;;;;17.15;3.25;;;;;;;9.76;100.00;100069.25;5072873;28;20028;-51
2023/03/31 02:04:27;;;;;;;13.63;3.00;;;;;;;9.77;100.00;100069.06;5074505;28;20029;-52
2023/03/31 02:06:58;;;;;;;9.90;2.60;;;;;;;9.77;100.00;100052.34;5058434;28;20486;-54
2023/03/31 02:09:30;;;;;;;10.10;2.63;;;;;;;9.75;100.00;100036.56;5075007;28;20130;-54
2023/03/31 02:11:58;;;;;;;13.13;2.78;;;;;;;9.76;100.00;100032.94;5074311;28;20108;-52
2023/03/31 02:14:29;;;;;;;16.65;3.17;;;;;;;9.76;100.00;100025.00;5063167;28;20111;-55
2023/03/31 02:16:58;;;;;;;9.25;2.80;;;;;;;9.77;100.00;100024.00;5073457;28;20043;-55
2023/03/31 02:19:28;;;;;;;13.80;3.22;;;;;;;9.75;100.00;100003.91;5068399;28;20032;-52
2023/03/31 02:21:54;;;;;;;10.50;2.45;;;;;;;9.75;100.00;99993.28;5071583;28;20401;-52
2023/03/31 02:24:24;;;;;;;15.15;3.17;;;;;;;9.74;100.00;99991.59;5060507;28;20025;-54
2023/03/31 02:26:58;;;;;;;13.07;3.60;;;;;;;9.75;100.00;99990.63;5074578;28;20345;-54
2023/03/31 02:29:24;;;;;;;14.18;3.15;;;;;;;9.75;100.00;99974.72;5068483;28;20515;-54
2023/03/31 02:32:01;;;;;;;12.40;3.20;;;;;;;9.75;100.00;99970.25;5069307;28;20037;-54
2023/03/31 02:34:26;;;;;;;12.27;3.30;;;;;;;9.76;100.00;99960.50;5074636;28;20034;-54
2023/03/31 02:36:52;;;;;;;13.80;3.67;;;;;;;9.76;100.00;99960.50;5074190;28;20013;-54
2023/03/31 02:39:23;;;;;;;16.35;3.42;;;;;;;9.74;100.00;99928.81;5074090;28;20032;-53
2023/03/31 02:41:49;;;;;;;13.43;3.38;;;;;;;9.74;100.00;99910.25;5072816;28;20493;-51
2023/03/31 02:44:16;;;;;;;14.60;3.70;;;;;;;9.73;100.00;99921.00;5066816;28;20029;-53
2023/03/31 02:46:41;;;;;;;15.43;3.65;;;;;;;9.73;100.00;99916.53;5068789;28;20055;-54
2023/03/31 02:49:09;;;;;;;15.05;3.90;;;;;;;9.71;100.00;99909.66;5067157;28;20028;-54
2023/03/31 02:51:53;;;;;;;15.60;3.65;;;;;;;9.71;100.00;99899.06;5074134;28;20036;-54
2023/03/31 02:55:03;;;;;;;13.65;3.40;;;;;;;9.72;100.00;99898.09;5062135;28;20405;-53
2023/03/31 02:58:05;;;;;;;13.85;3.67;;;;;;;9.71;100.00;99883.16;5057692;28;20104;-54
2023/03/31 03:00:53;;;;;;;17.52;4.22;;;;;;;9.68;100.00;99871.03;5064338;28;20110;-53
2023/03/31 03:03:35;;;;;;;20.75;4.72;;;;;;;9.70;100.00;99861.09;5073512;28;20036;-53
2023/03/31 03:06:12;;;;;;;17.73;3.40;;;;;;;9.71;100.00;99856.63;5073494;28;20508;-54
2023/03/31 03:09:13;;;;;;;14.50;3.90;;;;;;;9.71;100.00;99865.44;5068867;28;20153;-51
2023/03/31 03:11:50;;;;;;;18.38;4.07;;;;;;;9.69;100.00;99859.44;5068141;28;20033;-54
2023/03/31 03:14:36;;;;;;;15.90;3.85;;;;;;;9.71;100.00;99857.50;5073542;28;20025;-51
2023/03/31 03:17:10;;;;;;;16.33;3.85;;;;;;;9.68;100.00;99849.81;5070690;28;20080;-51
2023/03/31 03:19:35;;;;;;;18.98;4.05;;;;;;;9.70;100.00;99839.06;5073240;28;20028;-53
2023/03/31 03:22:00;;;;;;;18.15;4.00;;;;;;;9.72;100.00;99842.41;5061606;28;20095;-54
2023/03/31 03:24:28;;;;;;;16.30;3.95;;;;;;;9.70;100.00;99834.59;5073043;28;20025;-54
2023/03/31 03:26:54;;;;;;;16.70;3.67;;;;;;;9.68;100.00;99841.03;5066555;28;20033;-54
2023/03/31 03:29:20;;;;;;;16.05;3.63;;;;;;;9.68;100.00;99843.69;5078012;28;20119;-54
2023/03/31 03:31:45;;;;;;;15.65;3.67;;;;;;;9.67;100.00;99836.69;5073046;28;20059;-54
2023/03/31 03:34:11;;;;;;;17.38;4.00;;;;;;;9.68;100.00;99841.03;5073179;28;20027;-54
2023/03/31 03:36:37;;;;;;;16.42;3.90;;;;;;;9.67;100.00;99834.03;5062762;28;20040;-53
2023/03/31 03:39:04;;;;;;;17.85;3.85;;;;;;;9.66;100.00;99819.09;5073090;28;20039;-54
2023/03/31 03:41:30;;;;;;;12.70;3.10;;;;;;;9.65;100.00;99807.66;5073068;28;20077;-54
2023/03/31 03:43:56;;;;;;;11.90;3.33;;;;;;;9.64;100.00;99800.66;5072126;28;20021;-53
2023/03/31 03:46:21;;;;;;;17.52;3.55;;;;;;;9.63;100.00;99799.84;5063264;28;20037;-53
2023/03/31 03:48:46;;;;;;;11.38;3.03;;;;;;;9.62;100.00;99786.72;5072326;28;20047;-53
2023/03/31 03:51:12;;;;;;;15.02;3.03;;;;;;;9.61;100.00;99780.59;5072223;28;20060;-52
2023/03/31 03:53:37;;;;;;;16.95;3.63;;;;;;;9.59;100.00;99771.06;5057828;28;20028;-54
2023/03/31 03:56:02;;;;;;;13.02;3.20;;;;;;;9.58;100.00;99764.94;5070438;28;20481;-50
2023/03/31 03:58:27;;;;;;;12.90;2.90;;;;;;;9.57;100.00;99762.44;5059862;28;20089;-53
2023/03/31 04:00:53;;;;;;;19.58;3.45;;;;;;;9.54;100.00;99755.59;5072405;28;20465;-53
2023/03/31 04:03:18;;;;;;;13.75;3.28;;;;;;;9.53;100.00;99753.91;5060742;28;20112;-54
2023/03/31 04:05:44;;;;;;;11.65;2.75;;;;;;;9.53;100.00;99751.28;5071953;28;20032;-54
2023/03/31 04:08:09;;;;;;;12.45;2.78;;;;;;;9.52;100.00;99732.84;5072555;28;20064;-52
2023/03/31 04:10:35;;;;;;;13.95;3.00;;;;;;;9.50;100.00;99733.00;5069516;28;20503;-52
2023/03/31 04:13:00;;;;;;;9.13;3.00;;;;;;;9.48;100.00;99720.88;5066911;28;20051;-53
2023/03/31 04:15:26;;;;;;;15.32;3.05;;;;;;;9.47;100.00;99709.41;5066183;28;20085;-54
2023/03/31 04:17:53;;;;;;;12.00;2.35;;;;;;;9.47;100.00;99703.28;5067551;28;20031;-54
2023/03/31 04:20:19;;;;;;;13.80;2.40;;;;;;;9.47;100.00;99708.56;5075658;28;20365;-54
2023/03/31 04:22:46;;;;;;;11.88;2.60;;;;;;;9.44;100.00;99697.28;5062529;28;20056;-51
2023/03/31 04:25:15;;;;;;;13.18;3.05;;;;;;;9.44;100.00;99688.47;5072251;28;20040;-54
2023/03/31 04:27:53;;;;;;;12.45;2.63;;;;;;;9.44;100.00;99685.81;5072080;28;20028;-52
2023/03/31 04:30:23;;;;;;;10.30;2.80;;;;;;;9.43;100.00;99685.00;5070930;28;20029;-52
2023/03/31 04:32:53;;;;;;;;;;;;;;;9.48;100.00;99670.50;5062813;28;20029;-51
2023/03/31 04:35:20;;;;;;;12.60;3.13;;;;;;;9.42;100.00;99663.94;5071455;28;20011;-52
2023/03/31 04:37:47;;;;;;;13.65;2.80;;;;;;;9.40;100.00;99650.00;5070647;28;20161;-50
2023/03/31 04:40:12;;;;;;;13.43;3.13;;;;;;;9.39;100.00;99654.47;5069512;28;20059;-50
2023/03/31 04:42:38;;;;;;;9.70;2.33;;;;;;;9.37;100.00;99639.66;5079901;28;20549;-52
2023/03/31 04:45:03;;;;;;;7.72;2.65;;;;;;;9.41;100.00;99636.59;5071719;28;20020;-53
2023/03/31 04:47:29;;;;;;;11.48;2.80;;;;;;;9.40;100.00;99640.22;5066357;28;20036;-53
2023/03/31 04:49:54;;;;;;;9.80;2.42;;;;;;;9.39;100.00;99627.97;5069186;28;20497;-51
2023/03/31 04:52:19;;;;;;;10.55;2.55;;;;;;;9.39;100.00;99625.31;5071772;28;20031;-54
2023/03/31 04:54:45;;;;;;;9.43;2.10;;;;;;;9.39;100.00;99619.16;5071635;28;20032;-51
2023/03/31 04:57:10;;;;;;;11.35;2.53;;;;;;;9.38;100.00;99617.50;5054663;28;20039;-53
2023/03/31 04:59:35;;;;;;;9.20;2.38;;;;;;;9.37;100.00;99614.00;5060741;28;20028;-50
2023/03/31 05:02:01;;;;;;;13.77;2.65;;;;;;;9.35;100.00;99615.13;5070729;28;20033;-53
2023/03/31 05:04:26;;;;;;;11.27;2.20;;;;;;;9.33;100.00;99617.91;5071238;28;20024;-54
2023/03/31 05:06:51;;;;;;;9.63;2.33;;;;;;;9.33;100.00;99603.84;5071913;28;20474;-54
2023/03/31 05:09:17;;;;;;;7.15;2.25;;;;;;;9.30;100.00;99594.34;5065528;28;20527;-54
2023/03/31 05:11:43;;;;;;;8.07;2.60;;;;;;;9.30;100.00;99581.09;5071658;28;20039;-51
2023/03/31 05:14:08;;;;;;;11.63;2.58;;;;;;;9.31;100.00;99582.78;5071433;28;20091;-51
2023/03/31 05:16:33;;;;;;;12.73;2.72;;;;;;;9.30;100.00;99575.78;5062606;28;20032;-54
2023/03/31 05:18:59;;;;;;;10.93;3.05;;;;;;;9.30;100.00;99577.63;5069616;28;20021;-53
2023/03/31 05:21:25;;;;;;;8.25;2.35;;;;;;;9.29;100.00;99570.63;5071462;28;20219;-52
2023/03/31 05:23:51;;;;;;;9.45;2.60;;;;;;;9.28;100.00;99568.97;5070120;28;20485;-53
2023/03/31 05:26:17;;;;;;;8.18;2.47;;;;;;;9.27;100.00;99565.47;5064391;28;20040;-50
2023/03/31 05:28:42;;;;;;;7.05;2.38;;;;;;;9.25;100.00;99562.13;5069089;28;20021;-50
2023/03/31 05:31:08;;;;;;;9.65;2.22;;;;;;;9.24;100.00;99556.00;5070380;28;20036;-53
2023/03/31 05:33:39;;;;;;;7.35;2.78;;;;;;;9.24;100.00;99552.50;5070037;28;20035;-51
2023/03/31 05:36:04;;;;;;;6.85;2.10;;;;;;;9.23;100.00;99549.03;5061116;28;20462;-50
2023/03/31 05:38:30;;;;;;;9.30;2.40;;;;;;;9.24;100.00;99549.84;5070790;28;20082;-50
2023/03/31 05:40:56;;;;;;;9.07;2.10;;;;;;;9.22;100.00;99543.88;5069110;28;20393;-50
2023/03/31 05:43:21;;;;;;;7.45;2.42;;;;;;;9.22;100.00;99546.50;5080511;28;20060;-50
2023/03/31 05:45:46;;;;;;;8.40;2.95;;;;;;;9.22;100.00;99542.03;5071240;28;20028;-50
2023/03/31 05:48:12;;;;;;;7.50;2.70;;;;;;;9.21;100.00;99543.03;5071290;28;20052;-50
2023/03/31 05:50:37;;;;;;;7.22;2.05;;;;;;;9.22;100.00;99538.56;5056930;28;20028;-50
2023/03/31 05:53:02;;;;;;;6.65;1.95;;;;;;;9.21;100.00;99531.63;5061101;28;20044;-53
2023/03/31 05:55:27;;;;;;;11.15;2.78;;;;;;;9.20;100.00;99528.09;5060626;28;20482;-51
2023/03/31 05:57:53;;;;;;;7.88;2.47;;;;;;;9.19;100.00;99523.81;5056818;28;20037;-51
2023/03/31 06:00:19;;;;;;;8.07;2.25;;;;;;;9.17;100.00;99522.25;5070523;28;20031;-50
2023/03/31 06:02:44;;;;;;;5.55;2.47;;;;;;;9.18;100.00;99524.78;5075738;28;20545;-51
2023/03/31 06:05:10;;;;;;;9.10;2.40;;;;;;;9.19;100.00;99517.66;5040966;28;20037;-51
2023/03/31 06:07:35;;;;;;;7.20;2.17;;;;;;;9.19;100.00;99504.41;5057646;28;20089;-50
2023/03/31 06:10:00;;;;;;;8.25;2.10;;;;;;;9.19;100.00;99501.75;5057026;28;20462;-51
2023/03/31 06:12:26;;;;;;;8.88;2.30;;;;;;;9.18;100.00;99487.69;5069542;28;20462;-51
2023/03/31 06:14:51;;;;;;;11.98;2.95;;;;;;;9.16;100.00;99492.28;5064522;28;20320;-51
2023/03/31 06:17:16;;;;;;;8.60;2.22;;;;;;;9.17;100.00;99480.69;5066379;28;20039;-50
2023/03/31 06:19:41;;;;;;;9.52;2.78;;;;;;;9.17;100.00;99469.28;5064662;28;20467;-51
2023/03/31 06:22:07;;;;;;;12.60;3.05;;;;;;;9.19;100.00;99477.91;5062668;28;20060;-50
2023/03/31 06:24:32;;;;;;;8.18;2.17;;;;;;;9.17;100.00;99464.81;5067928;28;20075;-50
2023/03/31 06:26:59;;;;;;;11.30;2.80;;;;;;;9.16;100.00;99465.81;5063472;28;20032;-52
2023/03/31 06:29:26;;;;;;;8.80;2.38;;;;;;;9.18;100.00;99476.25;5065341;28;20521;-50
2023/03/31 06:31:51;;;;;;;9.40;2.80;;;;;;;9.19;100.00;99502.59;5070856;28;20025;-51
2023/03/31 06:34:16;;;;;;;13.10;2.70;;;;;;;9.20;100.00;99500.78;5062612;28;20546;-51
2023/03/31 06:36:42;;;;;;;9.13;2.55;;;;;;;9.20;100.00;99475.13;5070937;28;20537;-54
2023/03/31 06:39:07;;;;;;;3.97;2.33;;;;;;;9.21;100.00;99465.38;5065027;28;20389;-50
2023/03/31 06:41:32;;;;;;;5.05;2.72;;;;;;;9.20;100.00;99482.25;5073950;28;20090;-50
2023/03/31 06:43:58;;;;;;;6.90;2.47;;;;;;;9.21;100.00;99482.09;5068710;28;20510;-49
2023/03/31 06:46:23;;;;;;;8.70;2.60;;;;;;;9.20;100.00;99482.25;5066187;28;20039;-50
2023/03/31 06:48:48;;;;;;;10.45;2.63;;;;;;;9.21;100.00;99482.09;5068148;28;20079;-51
2023/03/31 06:51:14;;;;;;;10.45;2.40;;;;;;;9.22;100.00;99473.16;5076447;28;20036;-52
2023/03/31 06:53:39;;;;;;;7.22;2.67;;;;;;;9.23;100.00;99466.06;5071393;28;20459;-50
2023/03/31 06:56:05;;;;;;;9.23;3.10;;;;;;;9.23;100.00;99464.25;5070139;28;20040;-49
2023/03/31 06:58:30;;;;;;;9.48;3.00;;;;;;;9.24;100.00;99475.66;5057583;28;20071;-50
2023/03/31 07:00:56;;;;;;;13.32;3.40;;;;;;;9.25;100.00;99453.50;5064977;28;20430;-50
2023/03/31 07:03:23;;;;;;;11.90;3.22;;;;;;;9.28;100.00;99479.72;5067239;28;20274;-51
2023/03/31 07:05:50;;;;;;;18.42;4.00;;;;;;;9.28;100.00;99482.38;5066751;28;20024;-50
2023/03/31 07:08:19;;;;;;;12.43;3.10;;;;;;;9.29;100.00;99478.72;5065109;28;20079;-51
2023/03/31 07:10:47;;;;;;;18.40;3.60;;;;;;;9.33;100.00;99460.75;5066170;28;20024;-50
2023/03/31 07:13:16;;;;;;;18.25;3.92;;;;;;;9.34;100.00;99447.34;5065887;28;20503;-51
2023/03/31 07:15:42;;;;;;;14.88;3.50;;;;;;;9.37;100.00;99454.16;5057454;28;20029;-51
2023/03/31 07:18:08;;;;;;;13.35;3.55;;;;;;;9.39;100.00;99452.19;5065557;28;20044;-52
2023/03/31 07:20:34;;;;;;;11.77;3.10;;;;;;;9.39;100.00;99439.81;5071221;28;20035;-52
2023/03/31 07:23:03;;;;;;;11.32;3.20;;;;;;;9.42;100.00;99442.16;5069485;28;20074;-54
2023/03/31 07:25:28;;;;;;;10.50;2.65;;;;;;;9.44;100.00;99440.22;5057368;28;20082;-52
2023/03/31 07:27:54;;;;;;;11.88;2.75;;;;;;;9.45;100.00;99431.25;5057179;28;20033;-55
2023/03/31 07:30:19;;;;;;;12.20;3.45;;;;;;;9.45;100.00;99427.78;5068368;28;20036;-55
2023/03/31 07:32:46;;;;;;;8.93;2.70;;;;;;;9.46;100.00;99432.13;5069371;28;20044;-53
2023/03/31 07:35:12;;;;;;;13.82;2.53;;;;;;;9.50;100.00;99437.97;5071493;27;20036;-54
2023/03/31 07:37:42;;;;;;;10.40;2.60;;;;;;;9.51;100.00;99429.88;5071129;28;20089;-53
2023/03/31 07:40:10;;;;;;;10.30;2.55;;;;;;;9.53;100.00;99427.06;5070309;28;20040;-54
2023/03/31 07:42:35;;;;;;;11.10;2.83;;;;;;;9.55;100.00;99433.06;5071383;28;20543;-55
2023/03/31 07:45:02;;;;;;;12.00;2.90;;;;;;;9.58;100.00;99430.13;5069390;28;20127;-55
2023/03/31 07:47:27;;;;;;;11.88;3.40;;;;;;;9.63;100.00;99426.03;5071368;28;20030;-56
2023/03/31 07:49:53;;;;;;;13.40;3.55;;;;;;;9.65;100.00;99425.88;5063347;28;20041;-56
2023/03/31 07:52:18;;;;;;;14.48;3.22;;;;;;;9.68;100.00;99419.47;5075579;28;20462;-56
2023/03/31 07:54:45;;;;;;;17.33;3.88;;;;;;;9.71;100.00;99420.00;5063843;28;20044;-56
2023/03/31 07:57:11;;;;;;;16.08;3.63;;;;;;;9.76;100.00;99415.09;5061998;28;20024;-56
2023/03/31 07:59:36;;;;;;;15.48;3.47;;;;;;;9.80;100.00;99413.81;5061920;28;20033;-56
2023/03/31 08:02:02;;;;;;;18.42;3.80;;;;;;;9.84;100.00;99409.03;5057343;28;20047;-55
2023/03/31 08:04:27;;;;;;;17.65;3.50;;;;;;;9.88;100.00;99413.06;5066164;28;20434;-56
2023/03/31 08:06:52;;;;;;;17.73;4.10;;;;;;;9.94;100.00;99412.50;5063845;28;20549;-55
2023/03/31 08:09:18;;;;;;;17.42;3.65;;;;;;;9.98;100.00;99407.72;5052481;28;20127;-55
2023/03/31 08:11:44;;;;;;;17.48;3.78;;;;;;;10.03;100.00;99399.31;5049921;28;20028;-56
2023/03/31 08:14:09;;;;;;;17.55;4.13;;;;;;;10.07;100.00;99401.50;5062862;28;20098;-55
2023/03/31 08:16:35;;;;;;;16.17;4.60;;;;;;;10.07;100.00;99393.53;5071344;28;20468;-55
2023/03/31 08:19:00;;;;;;;13.80;4.28;;;;;;;10.15;100.00;99395.44;5056852;28;20174;-53
2023/03/31 08:21:27;;;;;;;17.67;4.40;;;;;;;10.20;100.00;99398.50;5067928;28;20056;-55
2023/03/31 08:23:56;;;;;;;18.60;4.32;;;;;;;10.27;100.00;99396.06;5069228;28;20070;-56
2023/03/31 08:26:23;;;;;;;17.30;4.63;;;;;;;10.31;100.00;99390.31;5070239;28;20174;-55
2023/03/31 08:28:48;;;;;;;16.15;4.25;;;;;;;10.36;100.00;99384.59;5070729;28;20107;-55
2023/03/31 08:31:17;;;;;;;19.20;4.43;;;;;;;10.40;100.00;99390.41;5062033;28;20470;-58
2023/03/31 08:33:43;;;;;;;16.73;4.45;;;;;;;10.45;100.00;99386.31;5067508;28;20409;-55
2023/03/31 08:36:09;;;;;;;24.45;4.57;;;;;;;10.48;100.00;99388.66;5069843;28;20023;-53
2023/03/31 08:38:40;;;;;;;21.75;4.28;;;;;;;10.53;100.00;99385.56;5060156;28;20046;-55
2023/03/31 08:41:15;;;;;;;22.90;4.40;;;;;;;10.56;100.00;99390.56;5071528;28;20115;-55
2023/03/31 08:43:43;;;;;;;20.70;4.72;;;;;;;10.60;100.00;99391.91;5055892;28;20021;-55
2023/03/31 08:46:14;;;;;;;16.52;3.70;;;;;;;10.65;100.00;99386.16;5053468;28;20321;-54
2023/03/31 08:48:53;;;;;;;20.23;4.28;;;;;;;10.67;100.00;99381.50;5077943;28;20017;-55
2023/03/31 08:51:24;;;;;;;19.35;4.25;;;;;;;10.68;100.00;99377.88;5064548;28;20493;-55
2023/03/31 08:53:58;;;;;;;21.35;5.15;;;;;;;10.73;100.00;99381.72;5069735;28;20119;-55
2023/03/31 08:56:26;;;;;;;22.45;5.10;;;;;;;10.75;100.00;99376.25;5063342;28;20025;-56
2023/03/31 08:58:52;;;;;;;21.63;5.28;;;;;;;10.81;100.00;99370.34;5058939;28;20029;-55
2023/03/31 09:01:38;;;;;;;19.20;4.45;;;;;;;10.85;100.00;99387.63;5066735;28;20093;-55
2023/03/31 09:04:36;;;;;;;20.20;4.82;;;;;;;10.91;100.00;99380.88;5067376;28;20030;-55
2023/03/31 09:07:39;;;;;;;21.13;4.95;;;;;;;10.98;100.00;99379.25;5061118;28;20487;-54
2023/03/31 09:10:34;;;;;;;20.30;4.63;;;;;;;11.04;100.00;99380.44;5067281;28;20040;-55
2023/03/31 09:13:29;;;;;;;17.90;4.45;;;;;;;11.12;100.00;99367.19;5060308;28;20036;-55
2023/03/31 09:16:07;;;;;;;21.92;4.95;;;;;;;11.11;100.00;99366.38;5049726;28;20489;-55
2023/03/31 09:18:35;;;;;;;15.32;4.05;;;;;;;11.16;100.00;99378.34;5069903;28;20039;-55
2023/03/31 09:21:10;;;;;;;19.08;4.53;;;;;;;11.19;100.00;99370.91;5061304;28;20020;-55
2023/03/31 09:23:43;;;;;;;18.15;4.25;;;;;;;11.21;100.00;99371.56;5055945;28;20061;-55
2023/03/31 09:26:21;;;;;;;19.08;4.07;;;;;;;11.21;100.00;99366.25;5068258;28;20046;-55
2023/03/31 09:28:47;;;;;;;21.83;4.95;;;;;;;11.24;100.00;99360.63;5062790;28;20112;-55
2023/03/31 09:31:16;;;;;;;21.15;4.60;;;;;;;11.25;100.00;99356.16;5053004;28;20103;-55
2023/03/31 09:33:46;;;;;;;;;;;;;;;11.32;100.00;99356.34;5056722;28;20119;-55
2023/03/31 09:36:14;;;;;;;;;;;;;;;11.35;100.00;99354.19;5059367;28;19919;-55
2023/03/31 09:38:42;;;;;;;17.00;3.67;;;;;;;11.37;100.00;99351.38;5069854;28;19916;-55
2023/03/31 09:41:08;;;;;;;11.75;3.05;;;;;;;11.40;100.00;99345.75;5065500;28;20039;-55
2023/03/31 09:43:34;;;;;;;21.02;4.40;;;;;;;11.44;100.00;99347.06;5069825;28;20037;-54
2023/03/31 09:46:00;;;;;;;15.48;3.60;;;;;;;11.53;100.00;99347.97;5069665;28;20025;-55
2023/03/31 09:48:29;;;;;;;13.85;3.50;;;;;;;11.58;100.00;99345.66;5066950;28;20132;-55
2023/03/31 09:50:58;;;;;;;17.50;4.25;;;;;;;11.66;100.00;99346.50;5069652;28;20035;-55
2023/03/31 09:53:48;;;;;;;19.38;3.58;;;;;;;11.77;100.00;99336.56;5064024;28;20117;-54
2023/03/31 09:56:31;;;;;;;14.65;3.47;;;;;;;11.83;100.00;99338.56;5058328;28;20385;-55
2023/03/31 09:59:01;;;;;;;18.38;4.50;;;;;;;11.86;100.00;99330.28;5060534;28;20028;-55
2023/03/31 10:01:28;;;;;;;16.30;4.25;;;;;;;11.90;98.05;99334.25;5069550;28;20054;-55
2023/03/31 10:03:54;;;;;;;15.93;4.55;;;;;;;11.93;96.40;99338.47;5066163;28;20025;-55
2023/03/31 10:06:22;;;;;;;16.35;3.80;;;;;;;11.99;97.65;99328.00;5072344;28;20485;-55
2023/03/31 10:08:56;;;;;;;11.93;3.40;;;;;;;12.05;96.20;99329.16;5059515;28;20033;-52
2023/03/31 10:11:22;;;;;;;15.90;3.38;;;;;;;12.05;95.12;99329.16;5071510;28;20036;-55
2023/03/31 10:14:01;;;;;;;15.10;3.08;;;;;;;12.06;94.15;99329.97;5060693;28;20035;-55
2023/03/31 10:16:44;;;;;;;13.63;3.97;;;;;;;12.08;97.47;99322.69;5067183;28;20086;-55
2023/03/31 10:19:13;;;;;;;11.95;3.33;;;;;;;12.07;94.57;99329.00;5060409;28;20338;-55
2023/03/31 10:21:38;;;;;;;9.83;2.70;;;;;;;12.09;94.97;99334.97;5075802;28;20453;-52
2023/03/31 10:24:09;;;;;;;12.85;3.33;;;;;;;12.11;96.37;99322.38;5068333;28;20135;-55
2023/03/31 10:26:35;;;;;;;12.18;2.95;;;;;;;12.12;94.12;99324.84;5072098;28;20068;-55
2023/03/31 10:29:00;;;;;;;12.18;2.80;;;;;;;12.12;93.60;99313.38;5070641;28;20032;-53
2023/03/31 10:31:34;;;;;;;10.55;3.22;;;;;;;12.07;94.08;99310.38;5073222;28;20031;-54
2023/03/31 10:34:05;;;;;;;12.90;3.08;;;;;;;12.00;93.59;99308.34;5075973;28;20568;-56
2023/03/31 10:36:31;;;;;;;11.85;3.08;;;;;;;11.95;93.80;99313.34;5074819;28;20032;-54
2023/03/31 10:38:57;;;;;;;10.48;3.05;;;;;;;11.92;92.66;99308.34;5067844;28;20394;-56
2023/03/31 10:41:32;;;;;;;14.32;3.42;;;;;;;11.89;95.90;99307.81;5081729;28;20036;-56
2023/03/31 10:43:59;;;;;;;14.75;3.20;;;;;;;11.87;93.81;99315.97;5073733;28;20065;-55
2023/03/31 10:46:46;;;;;;;14.00;3.17;;;;;;;11.91;95.40;99297.88;5074536;28;20028;-56
2023/03/31 10:49:25;;;;;;;11.85;3.15;;;;;;;11.98;96.65;99296.22;5076891;28;20040;-56
2023/03/31 10:51:56;;;;;;;15.77;3.25;;;;;;;12.01;93.64;99303.91;5063879;28;20496;-56
2023/03/31 10:54:22;;;;;;;12.07;3.35;;;;;;;12.07;94.18;99287.25;5070362;28;20040;-56
2023/03/31 10:56:56;;;;;;;12.98;3.35;;;;;;;12.13;95.12;99283.94;5065961;28;20460;-55
2023/03/31 10:59:50;;;;;;;16.08;3.47;;;;;;;12.15;93.49;99292.56;5060829;28;20579;-56
2023/03/31 11:02:41;;;;;;;14.75;3.83;;;;;;;12.13;93.01;99289.25;5064738;28;20086;-55
2023/03/31 11:05:25;;;;;;;14.90;3.63;;;;;;;12.10;94.85;99286.09;5060826;28;20045;-55
2023/03/31 11:08:06;;;;;;;16.88;3.88;;;;;;;12.04;93.96;99292.91;5073560;28;20060;-55
2023/03/31 11:10:57;;;;;;;12.48;3.30;;;;;;;12.00;96.18;99291.56;5059674;28;20175;-52
2023/03/31 11:13:43;;;;;;;14.32;3.35;;;;;;;11.93;96.92;99286.06;5064353;28;20028;-55
2023/03/31 11:16:50;;;;;;;14.70;3.70;;;;;;;12.01;97.57;99280.78;5070811;28;20040;-53
2023/03/31 11:19:21;;;;;;;19.63;4.57;;;;;;;11.96;98.39;99274.28;5066815;28;20053;-54
2023/03/31 11:21:57;;;;;;;16.27;3.40;;;;;;;12.03;98.86;99277.94;5066637;28;20059;-53
2023/03/31 11:24:31;;;;;;;16.50;4.03;;;;;;;12.06;96.63;99272.28;5072418;28;20062;-53
2023/03/31 11:27:34;;;;;;;16.15;3.58;;;;;;;12.12;95.37;99268.13;5069633;28;20025;-55
2023/03/31 11:30:08;;;;;;;15.27;3.17;;;;;;;12.14;93.61;99271.44;5057945;27;20094;-53
2023/03/31 11:33:01;;;;;;;15.23;3.83;;;;;;;12.24;94.53;99255.31;5064836;28;20415;-52
2023/03/31 11:35:29;;;;;;;14.80;4.22;;;;;;;12.32;93.94;99257.97;5062235;28;20055;-52
2023/03/31 11:38:53;;;;;;;17.08;3.60;;;;;;;12.34;92.25;99256.81;5066259;28;20499;-55
2023/03/31 11:41:32;;;;;;;15.20;4.28;;;;;;;12.30;88.65;99252.81;5025308;28;20033;-55